Time;durP1;ratioP1;P1;durP2;ratioP2;P2;SDS_P1;SDS_P2;PMS_P1;PMS_P2;Temp;Humidity;BMP_temperature;BMP_pressure;BME280_temperature;BME280_humidity;BME280_pressure;Samples;Min_cycle;Max_cycle;Signal;HPM_P1;HPM_P2
2024/04/17 00:00:50;;;;;;;1.88;0.70;;;9.20;53.50;;;;;;5491963;26;20215;-71
2024/04/17 00:03:19;;;;;;;2.17;0.87;;;9.30;53.50;;;;;;5491856;26;20240;-71
2024/04/17 00:05:45;;;;;;;1.90;0.70;;;9.30;53.70;;;;;;5491685;26;20969;-71
2024/04/17 00:08:14;;;;;;;2.00;0.70;;;9.20;53.40;;;;;;5491773;26;20214;-71
2024/04/17 00:10:40;;;;;;;1.80;0.60;;;9.20;53.50;;;;;;5490734;26;20261;-71
2024/04/17 00:13:12;;;;;;;1.83;0.70;;;9.30;53.70;;;;;;5491257;26;20218;-71
2024/04/17 00:15:37;;;;;;;3.65;0.95;;;9.30;53.80;;;;;;5490255;26;20227;-71
2024/04/17 00:18:06;;;;;;;1.90;0.70;;;9.30;53.70;;;;;;5490655;26;20396;-71
2024/04/17 00:20:32;;;;;;;2.00;0.75;;;9.30;53.70;;;;;;5491563;26;20439;-71
2024/04/17 00:23:01;;;;;;;1.87;0.73;;;9.30;53.80;;;;;;5491505;26;20248;-71
2024/04/17 00:25:27;;;;;;;1.80;0.65;;;9.30;53.80;;;;;;5491207;26;20776;-71
2024/04/17 00:27:56;;;;;;;2.60;0.80;;;9.20;53.80;;;;;;5491384;26;20218;-71
2024/04/17 00:30:24;;;;;;;1.88;0.70;;;9.30;53.90;;;;;;5490467;26;20230;-71
2024/04/17 00:32:53;;;;;;;1.80;0.60;;;9.30;54.40;;;;;;5491204;26;20207;-71
2024/04/17 00:35:19;;;;;;;1.90;0.73;;;9.30;55.30;;;;;;5491410;26;20256;-71
2024/04/17 00:37:48;;;;;;;2.20;0.90;;;9.30;55.80;;;;;;5491089;26;20218;-71
2024/04/17 00:40:14;;;;;;;2.00;0.90;;;9.30;55.10;;;;;;5491159;26;20210;-71
2024/04/17 00:42:42;;;;;;;3.17;1.10;;;9.40;55.90;;;;;;5491002;26;20326;-71
2024/04/17 00:45:08;;;;;;;3.08;0.82;;;9.40;55.70;;;;;;5491170;26;20211;-71
2024/04/17 00:47:40;;;;;;;2.10;0.80;;;9.40;55.40;;;;;;5491101;26;20267;-71
2024/04/17 00:50:08;;;;;;;2.00;0.85;;;9.30;55.50;;;;;;5491057;26;20479;-71
2024/04/17 00:52:37;;;;;;;2.80;0.98;;;9.30;55.80;;;;;;5490855;26;20704;-71
2024/04/17 00:55:04;;;;;;;2.20;0.88;;;9.30;56.10;;;;;;5490954;26;20585;-71
2024/04/17 00:57:36;;;;;;;2.33;0.70;;;9.30;55.70;;;;;;5490454;26;20230;-71
2024/04/17 01:00:03;;;;;;;2.17;0.98;;;9.30;55.50;;;;;;5490869;26;20257;-71
2024/04/17 01:02:32;;;;;;;2.10;1.00;;;9.30;55.80;;;;;;5490697;26;20256;-71
2024/04/17 01:05:01;;;;;;;2.53;1.30;;;9.30;55.40;;;;;;5490541;26;20253;-71
2024/04/17 01:07:29;;;;;;;2.25;1.00;;;9.30;55.50;;;;;;5490671;26;20545;-71
2024/04/17 01:09:55;;;;;;;4.43;1.20;;;9.20;55.80;;;;;;5490584;26;20214;-71
2024/04/17 01:12:24;;;;;;;1.90;0.70;;;9.20;56.50;;;;;;5490522;26;20214;-71
2024/04/17 01:14:50;;;;;;;2.13;0.95;;;9.10;56.50;;;;;;5490399;26;20774;-71
2024/04/17 01:17:18;;;;;;;2.30;0.80;;;9.20;57.00;;;;;;5490550;26;20209;-71
2024/04/17 01:19:45;;;;;;;2.85;1.10;;;9.10;57.50;;;;;;5490553;26;20495;-71
2024/04/17 01:22:16;;;;;;;2.30;0.95;;;9.10;57.80;;;;;;5490367;26;20218;-71
2024/04/17 01:24:44;;;;;;;2.20;0.93;;;9.10;57.90;;;;;;5490527;26;20257;-71
2024/04/17 01:27:13;;;;;;;2.20;1.00;;;9.10;58.00;;;;;;5486878;26;20728;-71
2024/04/17 01:29:39;;;;;;;2.50;1.00;;;9.10;58.30;;;;;;5490509;26;20231;-71
2024/04/17 01:32:13;;;;;;;1.90;0.80;;;9.10;59.00;;;;;;5490345;26;20581;-71
2024/04/17 01:34:39;;;;;;;2.20;1.13;;;9.10;59.30;;;;;;5490211;26;20488;-71
2024/04/17 01:37:08;;;;;;;2.23;0.93;;;9.10;58.50;;;;;;5489683;26;20229;-71
2024/04/17 01:39:34;;;;;;;3.08;1.20;;;9.10;58.50;;;;;;5490289;26;20451;-71
2024/04/17 01:42:05;;;;;;;3.17;1.60;;;9.00;58.20;;;;;;5490086;26;20341;-71
2024/04/17 01:44:31;;;;;;;2.10;0.95;;;9.00;58.30;;;;;;5489877;26;20957;-71
2024/04/17 01:46:59;;;;;;;2.27;0.77;;;8.90;58.80;;;;;;5489883;26;20227;-71
2024/04/17 01:49:26;;;;;;;2.60;1.13;;;8.90;58.50;;;;;;5490323;26;20504;-71
2024/04/17 01:51:54;;;;;;;2.00;0.80;;;8.80;58.60;;;;;;5490327;26;20300;-71
2024/04/17 01:54:20;;;;;;;1.90;0.73;;;8.80;58.70;;;;;;5489668;26;20250;-71
2024/04/17 01:56:51;;;;;;;2.17;0.80;;;8.80;59.30;;;;;;5489624;26;20327;-71
2024/04/17 01:59:19;;;;;;;2.10;0.90;;;8.70;58.40;;;;;;5490163;26;20455;-71
2024/04/17 02:01:48;;;;;;;2.00;0.75;;;8.70;58.60;;;;;;5489561;26;20211;-71
2024/04/17 02:04:14;;;;;;;1.90;0.70;;;8.60;58.60;;;;;;5487593;26;20226;-71
2024/04/17 02:06:42;;;;;;;3.13;0.67;;;8.50;58.80;;;;;;5490247;26;20230;-71
2024/04/17 02:09:09;;;;;;;1.80;0.60;;;8.50;58.90;;;;;;5488155;26;20519;-71
2024/04/17 02:11:37;;;;;;;1.80;0.57;;;8.50;58.80;;;;;;5489745;26;20218;-70
2024/04/17 02:14:03;;;;;;;1.90;0.68;;;8.40;58.60;;;;;;5489583;26;20576;-72
2024/04/17 02:16:34;;;;;;;1.90;0.70;;;8.40;59.10;;;;;;5490413;26;20218;-71
2024/04/17 02:19:00;;;;;;;2.10;1.00;;;8.40;58.90;;;;;;5489322;26;20463;-71
2024/04/17 02:21:29;;;;;;;1.90;0.80;;;8.40;58.70;;;;;;5489307;26;20268;-71
2024/04/17 02:23:55;;;;;;;3.13;1.00;;;8.30;58.80;;;;;;5489423;26;20494;-70
2024/04/17 02:26:23;;;;;;;1.80;0.60;;;8.30;58.80;;;;;;5489440;26;20211;-70
2024/04/17 02:28:49;;;;;;;2.00;0.70;;;8.30;59.00;;;;;;5488839;26;20519;-70
2024/04/17 02:31:18;;;;;;;2.00;0.70;;;8.30;59.00;;;;;;5488101;26;20265;-71
2024/04/17 02:33:46;;;;;;;1.90;0.70;;;8.30;58.90;;;;;;5489193;26;20587;-71
2024/04/17 02:36:19;;;;;;;2.22;0.70;;;8.30;59.30;;;;;;5489453;26;20214;-71
2024/04/17 02:38:45;;;;;;;1.80;0.65;;;8.30;59.20;;;;;;5489160;26;20260;-71
2024/04/17 02:41:14;;;;;;;2.20;0.90;;;8.30;59.00;;;;;;5488593;26;20230;-71
2024/04/17 02:43:40;;;;;;;2.22;0.90;;;8.30;59.00;;;;;;5489074;26;20443;-71
2024/04/17 02:46:08;;;;;;;2.00;0.70;;;8.30;59.00;;;;;;5488784;26;20248;-71
2024/04/17 02:48:34;;;;;;;1.80;0.70;;;8.40;59.00;;;;;;5489602;26;20499;-71
2024/04/17 02:51:06;;;;;;;2.30;0.90;;;8.40;58.80;;;;;;5488649;26;20227;-71
2024/04/17 02:53:32;;;;;;;1.80;0.70;;;8.40;59.10;;;;;;5489110;26;20451;-71
2024/04/17 02:56:00;;;;;;;2.57;1.07;;;8.40;58.60;;;;;;5488832;26;20677;-71
2024/04/17 02:58:26;;;;;;;2.00;0.90;;;8.40;58.50;;;;;;5488459;26;20463;-71
2024/04/17 03:00:56;;;;;;;2.57;1.40;;;8.30;58.70;;;;;;5488445;26;20326;-71
2024/04/17 03:03:22;;;;;;;2.80;1.50;;;8.30;58.70;;;;;;5488856;26;20443;-71
2024/04/17 03:05:51;;;;;;;2.53;1.20;;;8.30;58.90;;;;;;5488478;26;20278;-71
2024/04/17 03:08:19;;;;;;;2.30;1.17;;;8.30;58.70;;;;;;5488737;26;20447;-71
2024/04/17 03:10:48;;;;;;;2.28;1.08;;;8.30;59.40;;;;;;5488562;26;20230;-71
2024/04/17 03:13:14;;;;;;;1.95;0.90;;;8.20;59.30;;;;;;5488712;26;20218;-71
2024/04/17 03:15:42;;;;;;;1.90;0.80;;;8.20;59.50;;;;;;5488175;26;20230;-70
2024/04/17 03:18:08;;;;;;;1.90;0.80;;;8.30;59.80;;;;;;5488275;26;20506;-70
2024/04/17 03:20:37;;;;;;;2.00;0.80;;;8.30;59.40;;;;;;5489570;26;20215;-71
2024/04/17 03:23:04;;;;;;;1.90;0.75;;;8.30;59.20;;;;;;5492175;26;20964;-71
2024/04/17 03:25:35;;;;;;;2.00;0.80;;;8.40;59.60;;;;;;5492396;26;20219;-71
2024/04/17 03:28:01;;;;;;;1.83;0.70;;;8.40;59.20;;;;;;5490803;26;20723;-71
2024/04/17 03:30:33;;;;;;;2.13;0.88;;;8.40;59.30;;;;;;5491848;26;20230;-71
2024/04/17 03:32:59;;;;;;;1.90;0.90;;;8.40;59.30;;;;;;5492201;26;20735;-70
2024/04/17 03:35:28;;;;;;;1.90;0.88;;;8.40;58.80;;;;;;5491965;26;20206;-71
2024/04/17 03:37:56;;;;;;;1.80;0.60;;;8.40;58.80;;;;;;5491544;26;20230;-71
2024/04/17 03:40:25;;;;;;;1.92;0.70;;;8.40;58.60;;;;;;5491933;26;20211;-71
2024/04/17 03:42:56;;;;;;;2.10;0.90;;;8.30;58.80;;;;;;5491854;26;20580;-71
2024/04/17 03:45:25;;;;;;;2.00;0.90;;;8.30;58.50;;;;;;5491799;26;20539;-71
2024/04/17 03:47:53;;;;;;;1.90;0.80;;;8.30;58.30;;;;;;5491504;26;20232;-71
2024/04/17 03:50:22;;;;;;;1.88;0.70;;;8.30;58.40;;;;;;5491907;26;20548;-71
2024/04/17 03:52:48;;;;;;;2.45;1.02;;;8.30;58.80;;;;;;5491757;26;20210;-71
2024/04/17 03:55:16;;;;;;;3.50;1.27;;;8.20;58.60;;;;;;5491603;26;20265;-71
2024/04/17 03:57:42;;;;;;;2.03;0.70;;;8.20;58.80;;;;;;5491175;26;20793;-71
2024/04/17 04:00:15;;;;;;;1.80;0.70;;;8.10;58.90;;;;;;5491625;26;20218;-71
2024/04/17 04:02:41;;;;;;;1.95;0.75;;;8.10;59.30;;;;;;5491578;26;20784;-70
2024/04/17 04:05:09;;;;;;;2.30;0.80;;;8.10;59.00;;;;;;5491512;26;20269;-71
2024/04/17 04:07:36;;;;;;;2.33;1.08;;;8.10;59.00;;;;;;5490923;26;20519;-71
2024/04/17 04:10:05;;;;;;;2.70;0.90;;;8.10;59.10;;;;;;5491567;26;20279;-70
2024/04/17 04:12:31;;;;;;;1.77;0.60;;;8.10;59.40;;;;;;5491841;26;20214;-71
2024/04/17 04:15:00;;;;;;;1.83;0.70;;;8.00;59.10;;;;;;5491651;26;20214;-71
2024/04/17 04:17:28;;;;;;;2.20;1.10;;;8.10;59.50;;;;;;5491542;26;20451;-71
2024/04/17 04:19:57;;;;;;;3.53;0.77;;;8.00;59.60;;;;;;5491411;26;20516;-71
2024/04/17 04:22:23;;;;;;;1.77;0.57;;;8.00;59.60;;;;;;5492315;26;20215;-71
2024/04/17 04:24:51;;;;;;;1.80;0.80;;;8.00;59.80;;;;;;5491033;26;20268;-71
2024/04/17 04:27:17;;;;;;;1.90;0.70;;;7.90;59.80;;;;;;5491486;26;20618;-71
2024/04/17 04:29:46;;;;;;;1.90;0.80;;;8.00;59.70;;;;;;5490934;26;20276;-71
2024/04/17 04:32:12;;;;;;;1.70;0.60;;;8.00;59.80;;;;;;5491724;26;20447;-71
2024/04/17 04:34:43;;;;;;;2.08;0.60;;;8.00;60.20;;;;;;5490709;26;20334;-71
2024/04/17 04:37:12;;;;;;;1.92;0.75;;;8.00;60.10;;;;;;5490901;26;20214;-70
2024/04/17 04:39:38;;;;;;;1.88;0.70;;;8.10;60.10;;;;;;5490576;26;20716;-71
2024/04/17 04:42:07;;;;;;;2.20;0.63;;;8.10;59.80;;;;;;5490918;26;20261;-71
2024/04/17 04:44:36;;;;;;;2.20;0.80;;;8.10;59.60;;;;;;5490142;26;20456;-71
2024/04/17 04:47:04;;;;;;;2.95;1.00;;;8.10;59.20;;;;;;5490483;26;20260;-71
2024/04/17 04:49:30;;;;;;;2.55;1.05;;;8.20;59.30;;;;;;5490725;26;20214;-71
2024/04/17 04:52:02;;;;;;;2.00;0.95;;;8.20;59.30;;;;;;5490595;26;20206;-71
2024/04/17 04:54:28;;;;;;;1.90;0.90;;;8.20;59.40;;;;;;5487705;26;20694;-71
2024/04/17 04:56:56;;;;;;;2.40;1.97;;;8.20;59.70;;;;;;5488470;26;20226;-71
2024/04/17 04:59:22;;;;;;;2.10;0.90;;;8.20;59.70;;;;;;5489298;26;20455;-71
2024/04/17 05:01:51;;;;;;;2.10;0.90;;;8.20;59.40;;;;;;5489823;26;20215;-71
2024/04/17 05:04:17;;;;;;;2.00;0.82;;;8.20;59.40;;;;;;5489768;26;20969;-71
2024/04/17 05:06:46;;;;;;;2.20;0.88;;;8.20;59.40;;;;;;5489049;26;20231;-71
2024/04/17 05:09:15;;;;;;;2.40;0.75;;;8.20;59.30;;;;;;5489935;26;20684;-71
2024/04/17 05:11:43;;;;;;;1.90;0.80;;;8.20;59.40;;;;;;5489719;26;20218;-71
2024/04/17 05:14:09;;;;;;;1.80;0.70;;;8.30;60.00;;;;;;5489232;26;20214;-71
2024/04/17 05:16:38;;;;;;;1.90;0.77;;;8.30;59.10;;;;;;5489103;26;20238;-71
2024/04/17 05:19:04;;;;;;;1.90;0.70;;;8.30;59.40;;;;;;5488478;26;20770;-71
2024/04/17 05:21:33;;;;;;;1.80;0.80;;;8.30;59.30;;;;;;5489483;26;20218;-71
2024/04/17 05:23:59;;;;;;;1.80;0.77;;;8.30;59.40;;;;;;5489263;26;20261;-71
2024/04/17 05:26:30;;;;;;;2.63;0.80;;;8.30;60.20;;;;;;5489074;26;20783;-71
2024/04/17 05:28:56;;;;;;;1.80;0.65;;;8.30;60.20;;;;;;5489977;26;20214;-71
2024/04/17 05:31:25;;;;;;;2.00;0.77;;;8.40;60.10;;;;;;5489195;26;20218;-71
2024/04/17 05:33:51;;;;;;;11.20;5.20;;;8.40;60.70;;;;;;5489297;26;20257;-71
2024/04/17 05:36:20;;;;;;;4.73;1.50;;;8.40;61.10;;;;;;5488582;26;20689;-71
2024/04/17 05:38:46;;;;;;;2.00;0.85;;;8.50;61.30;;;;;;5489172;26;20505;-71
2024/04/17 05:41:14;;;;;;;2.30;0.97;;;8.50;61.50;;;;;;5488490;26;20230;-71
2024/04/17 05:43:43;;;;;;;1.90;0.90;;;8.40;62.20;;;;;;5487713;26;20456;-71
2024/04/17 05:46:12;;;;;;;2.10;0.98;;;8.40;62.60;;;;;;5488438;26;20230;-72
2024/04/17 05:48:42;;;;;;;2.78;0.93;;;8.40;62.50;;;;;;5488669;26;20230;-72
2024/04/17 05:51:11;;;;;;;1.90;0.80;;;8.40;62.00;;;;;;5488936;26;20214;-71
2024/04/17 05:53:38;;;;;;;2.20;0.70;;;8.40;62.20;;;;;;5485073;26;20241;-71
2024/04/17 05:56:08;;;;;;;2.00;0.80;;;8.40;62.40;;;;;;5481819;26;20264;-71
2024/04/17 05:58:34;;;;;;;2.72;1.00;;;8.30;63.10;;;;;;5488645;26;20218;-71
2024/04/17 06:01:05;;;;;;;2.20;0.80;;;8.30;63.30;;;;;;5488494;26;20238;-71
2024/04/17 06:03:31;;;;;;;5.70;2.65;;;8.20;63.70;;;;;;5486830;26;20253;-71
2024/04/17 06:06:00;;;;;;;2.37;1.03;;;8.20;63.90;;;;;;5483361;26;20603;-72
2024/04/17 06:08:26;;;;;;;1.80;0.73;;;8.20;64.70;;;;;;5485393;26;20475;-72
2024/04/17 06:10:55;;;;;;;2.20;0.90;;;8.20;65.10;;;;;;5478536;26;20295;-72
2024/04/17 06:13:21;;;;;;;2.00;0.90;;;8.10;64.90;;;;;;5451924;26;20564;-72
2024/04/17 06:15:50;;;;;;;2.20;0.85;;;8.10;65.60;;;;;;5459612;26;20268;-72
2024/04/17 06:18:18;;;;;;;2.08;0.85;;;8.10;65.60;;;;;;5473438;26;20278;-72
2024/04/17 06:20:47;;;;;;;2.67;1.02;;;8.10;65.20;;;;;;5470448;26;20238;-72
2024/04/17 06:23:13;;;;;;;2.80;1.10;;;8.10;65.10;;;;;;5455013;26;20529;-72
2024/04/17 06:25:45;;;;;;;1.95;0.82;;;8.00;65.30;;;;;;5487566;26;20334;-72
2024/04/17 06:28:11;;;;;;;2.08;0.90;;;8.00;65.40;;;;;;5487364;26;20265;-72
2024/04/17 06:30:40;;;;;;;2.63;1.10;;;8.00;65.50;;;;;;5486808;26;20955;-72
2024/04/17 06:33:06;;;;;;;2.40;1.02;;;8.00;64.90;;;;;;5475226;26;20781;-72
2024/04/17 06:35:38;;;;;;;2.00;0.90;;;8.00;64.70;;;;;;5486413;26;20234;-72
2024/04/17 06:38:04;;;;;;;2.50;1.02;;;8.00;63.70;;;;;;5488358;26;20725;-72
2024/04/17 06:40:33;;;;;;;2.40;1.25;;;8.00;63.90;;;;;;5487224;26;20230;-72
2024/04/17 06:42:59;;;;;;;2.30;1.30;;;7.90;64.40;;;;;;5488650;26;20241;-72
2024/04/17 06:45:28;;;;;;;2.20;1.23;;;7.90;63.80;;;;;;5488768;26;20218;-72
2024/04/17 06:47:56;;;;;;;2.53;1.17;;;7.80;63.30;;;;;;5488897;26;20495;-71
2024/04/17 06:50:22;;;;;;;2.50;1.50;;;7.80;63.40;;;;;;5488540;26;20249;-72
2024/04/17 06:52:53;;;;;;;2.63;1.40;;;7.70;64.30;;;;;;5488509;26;20266;-71
2024/04/17 06:55:20;;;;;;;2.50;1.10;;;7.60;64.10;;;;;;5490467;26;20704;-72
2024/04/17 06:57:48;;;;;;;2.45;1.25;;;7.60;64.30;;;;;;5492964;26;20569;-72
2024/04/17 07:00:15;;;;;;;2.30;1.10;;;7.60;65.40;;;;;;5492037;26;20676;-72
2024/04/17 07:02:43;;;;;;;2.38;1.20;;;7.60;65.20;;;;;;5491969;26;20214;-71
2024/04/17 07:05:09;;;;;;;2.20;1.10;;;7.50;66.20;;;;;;5492093;26;20273;-72
2024/04/17 07:07:43;;;;;;;2.20;1.02;;;7.60;66.70;;;;;;5491960;26;20625;-72
2024/04/17 07:10:12;;;;;;;2.40;0.95;;;7.60;67.50;;;;;;5492085;26;20249;-71
2024/04/17 07:12:42;;;;;;;2.70;2.30;;;7.50;66.10;;;;;;5491906;26;20209;-72
2024/04/17 07:15:09;;;;;;;3.22;2.30;;;7.50;67.50;;;;;;5492725;26;20214;-71
2024/04/17 07:17:37;;;;;;;4.15;1.92;;;7.50;68.80;;;;;;5492329;26;20738;-72
2024/04/17 07:20:04;;;;;;;1.90;0.80;;;7.50;69.70;;;;;;5491853;26;20214;-71
2024/04/17 07:22:32;;;;;;;2.67;1.20;;;7.60;69.80;;;;;;5491916;26;20218;-71
2024/04/17 07:25:03;;;;;;;2.20;1.00;;;7.70;69.60;;;;;;5492098;26;20256;-72
2024/04/17 07:27:34;;;;;;;2.47;1.60;;;7.70;69.50;;;;;;5492189;26;20222;-72
2024/04/17 07:30:00;;;;;;;2.33;1.00;;;7.70;70.40;;;;;;5491844;26;20238;-72
2024/04/17 07:32:28;;;;;;;2.10;0.83;;;7.80;70.50;;;;;;5492049;26;20240;-72
2024/04/17 07:34:54;;;;;;;2.97;1.25;;;7.80;69.90;;;;;;5491614;26;20496;-71
2024/04/17 07:37:23;;;;;;;2.47;1.27;;;7.70;69.30;;;;;;5491777;26;20222;-72
2024/04/17 07:39:49;;;;;;;2.63;1.00;;;7.70;69.40;;;;;;5491527;26;20265;-72
2024/04/17 07:42:17;;;;;;;2.30;0.97;;;7.70;68.50;;;;;;5491793;26;20262;-72
2024/04/17 07:44:49;;;;;;;2.00;0.75;;;7.70;67.10;;;;;;5491402;26;20511;-72
2024/04/17 07:47:18;;;;;;;2.80;1.20;;;7.70;67.30;;;;;;5491474;26;20266;-72
2024/04/17 07:49:44;;;;;;;2.20;0.90;;;7.70;67.70;;;;;;5491509;26;20253;-71
2024/04/17 07:52:12;;;;;;;3.35;1.42;;;7.70;68.60;;;;;;5491319;26;20222;-71
2024/04/17 07:54:38;;;;;;;4.78;1.70;;;7.80;70.00;;;;;;5491214;26;20210;-71
2024/04/17 07:57:07;;;;;;;2.78;1.45;;;7.80;69.40;;;;;;5491320;26;20295;-71
2024/04/17 07:59:33;;;;;;;2.50;1.10;;;7.80;69.20;;;;;;5491360;26;20214;-71
2024/04/17 08:02:04;;;;;;;2.20;0.90;;;7.80;69.20;;;;;;5491653;26;20707;-71
2024/04/17 08:04:30;;;;;;;2.42;1.15;;;7.90;70.40;;;;;;5491514;26;20253;-71
2024/04/17 08:06:59;;;;;;;2.33;1.08;;;7.90;69.40;;;;;;5490699;26;20289;-71
2024/04/17 08:09:25;;;;;;;2.92;1.30;;;7.90;70.20;;;;;;5491173;26;20537;-71
2024/04/17 08:11:54;;;;;;;2.70;1.23;;;7.90;70.10;;;;;;5491182;26;20266;-71
2024/04/17 08:14:20;;;;;;;2.30;1.05;;;8.00;71.70;;;;;;5491315;26;20499;-71
2024/04/17 08:16:49;;;;;;;2.23;1.03;;;8.00;70.60;;;;;;5491029;26;20218;-71
2024/04/17 08:19:18;;;;;;;2.65;1.17;;;7.90;70.10;;;;;;5491029;26;20548;-71
2024/04/17 08:21:46;;;;;;;2.60;1.55;;;7.90;70.40;;;;;;5491189;26;20226;-71
2024/04/17 08:24:13;;;;;;;3.20;1.65;;;8.00;71.00;;;;;;5491266;26;20218;-71
2024/04/17 08:26:42;;;;;;;2.95;1.60;;;8.00;70.80;;;;;;5491186;26;20250;-71
2024/04/17 08:29:08;;;;;;;4.03;1.65;;;8.00;70.90;;;;;;5491236;26;20217;-71
2024/04/17 08:31:37;;;;;;;2.80;1.35;;;8.10;70.70;;;;;;5491175;26;20218;-71
2024/04/17 08:34:03;;;;;;;3.22;1.88;;;8.10;71.00;;;;;;5491130;26;20218;-71
2024/04/17 08:36:34;;;;;;;6.70;3.90;;;8.10;71.10;;;;;;5490737;26;20283;-71
2024/04/17 08:39:00;;;;;;;5.25;3.67;;;8.10;72.00;;;;;;5490960;26;20459;-71
2024/04/17 08:41:31;;;;;;;4.35;3.00;;;8.20;70.30;;;;;;5491003;26;20607;-71
2024/04/17 08:43:59;;;;;;;6.88;4.50;;;8.10;69.60;;;;;;5490795;26;20563;-71
2024/04/17 08:46:28;;;;;;;12.55;9.05;;;8.20;69.60;;;;;;5490578;26;20252;-72
2024/04/17 08:48:55;;;;;;;7.07;5.45;;;8.20;69.40;;;;;;5490587;26;20214;-71
2024/04/17 08:51:26;;;;;;;7.70;5.05;;;8.10;69.30;;;;;;5491394;26;20222;-71
2024/04/17 08:54:00;;;;;;;6.07;3.47;;;8.10;69.40;;;;;;5490673;26;20377;-71
2024/04/17 08:56:30;;;;;;;2.70;1.52;;;8.10;69.60;;;;;;5490754;26;20218;-71
2024/04/17 08:58:56;;;;;;;4.47;3.05;;;8.10;70.10;;;;;;5490492;26;20737;-71
2024/04/17 09:01:30;;;;;;;6.20;2.90;;;8.10;70.00;;;;;;5490846;26;20661;-71
2024/04/17 09:03:57;;;;;;;3.00;1.50;;;8.10;70.00;;;;;;5490827;26;20215;-71
2024/04/17 09:06:30;;;;;;;2.58;1.40;;;8.10;70.10;;;;;;5490017;26;20226;-72
2024/04/17 09:09:00;;;;;;;2.22;1.17;;;8.10;69.80;;;;;;5490336;26;20214;-71
2024/04/17 09:11:33;;;;;;;2.95;1.80;;;8.20;71.00;;;;;;5490593;26;20727;-71
2024/04/17 09:14:00;;;;;;;2.78;1.50;;;8.20;70.00;;;;;;5490904;26;20257;-72
2024/04/17 09:16:30;;;;;;;2.60;1.80;;;8.20;70.60;;;;;;5490106;26;20261;-72
2024/04/17 09:18:56;;;;;;;3.40;1.80;;;8.20;70.00;;;;;;5488929;26;20218;-71
2024/04/17 09:21:27;;;;;;;3.28;2.67;;;8.20;70.00;;;;;;5490386;26;20219;-72
2024/04/17 09:23:53;;;;;;;11.15;7.53;;;8.20;69.50;;;;;;5490404;26;20218;-71
2024/04/17 09:26:25;;;;;;;6.90;3.85;;;8.20;69.70;;;;;;5490328;26;20728;-71
2024/04/17 09:28:51;;;;;;;2.10;1.00;;;8.20;69.70;;;;;;5490182;26;20585;-71
2024/04/17 09:31:20;;;;;;;1.70;0.60;;;8.20;69.40;;;;;;5490020;26;20327;-72
2024/04/17 09:33:48;;;;;;;2.13;0.75;;;8.20;68.80;;;;;;5489837;26;20341;-72
2024/04/17 09:36:19;;;;;;;2.17;0.90;;;8.20;68.40;;;;;;5489711;26;20260;-72
2024/04/17 09:38:48;;;;;;;1.90;0.70;;;8.30;68.60;;;;;;5489858;26;20258;-71
2024/04/17 09:41:17;;;;;;;1.90;0.85;;;8.30;67.80;;;;;;5490207;26;20270;-71
2024/04/17 09:43:49;;;;;;;1.83;0.65;;;8.30;67.60;;;;;;5489700;26;20256;-71
2024/04/17 09:46:18;;;;;;;1.90;0.80;;;8.30;67.90;;;;;;5489587;26;20214;-71
2024/04/17 09:48:50;;;;;;;2.00;0.70;;;8.40;68.60;;;;;;5489934;26;20391;-71
2024/04/17 09:51:23;;;;;;;2.05;0.65;;;8.40;68.10;;;;;;5490041;26;20655;-72
2024/04/17 09:53:53;;;;;;;2.15;0.80;;;8.50;69.10;;;;;;5489794;26;20210;-72
2024/04/17 09:56:23;;;;;;;2.08;0.75;;;8.60;69.00;;;;;;5490017;26;20218;-71
2024/04/17 09:58:53;;;;;;;1.80;0.60;;;8.70;71.60;;;;;;5490293;26;20214;-71
2024/04/17 10:01:24;;;;;;;1.90;0.80;;;9.00;75.10;;;;;;5489338;26;20210;-72
2024/04/17 10:03:51;;;;;;;1.90;0.70;;;9.50;74.80;;;;;;5490136;26;20218;-71
2024/04/17 10:06:23;;;;;;;1.90;0.70;;;10.00;69.70;;;;;;5489117;26;20583;-72
2024/04/17 10:08:54;;;;;;;2.00;0.80;;;10.50;68.00;;;;;;5489538;26;20218;-71
2024/04/17 10:11:23;;;;;;;2.10;0.85;;;10.80;63.50;;;;;;5489442;26;20273;-71
2024/04/17 10:13:53;;;;;;;1.90;0.70;;;10.90;63.00;;;;;;5489318;26;20241;-71
2024/04/17 10:16:22;;;;;;;2.17;1.00;;;11.00;63.40;;;;;;5489177;26;20218;-71
2024/04/17 10:18:50;;;;;;;1.80;0.70;;;11.00;65.50;;;;;;5489772;26;20245;-71
2024/04/17 10:21:18;;;;;;;1.98;0.80;;;11.10;64.40;;;;;;5489166;26;20214;-71
2024/04/17 10:23:47;;;;;;;2.30;1.10;;;11.20;60.70;;;;;;5488866;26;20571;-72
2024/04/17 10:26:13;;;;;;;2.72;1.23;;;11.30;61.20;;;;;;5488892;26;20222;-72
2024/04/17 10:28:55;;;;;;;1.90;0.90;;;11.40;63.40;;;;;;5488524;26;20265;-71
2024/04/17 10:31:21;;;;;;;2.20;0.80;;;11.60;64.40;;;;;;5492618;26;20455;-72
2024/04/17 10:33:50;;;;;;;2.08;0.90;;;12.00;64.30;;;;;;5493252;26;20277;-71
2024/04/17 10:36:16;;;;;;;2.20;0.88;;;12.40;66.20;;;;;;5492316;26;20210;-71
2024/04/17 10:38:45;;;;;;;2.00;0.93;;;12.70;59.50;;;;;;5492326;26;20701;-71
2024/04/17 10:41:12;;;;;;;1.90;0.90;;;12.70;57.50;;;;;;5492592;26;20509;-71
2024/04/17 10:43:42;;;;;;;2.20;1.10;;;12.70;57.20;;;;;;5492252;26;20274;-71
2024/04/17 10:46:11;;;;;;;2.13;0.90;;;12.70;55.50;;;;;;5492561;26;20504;-71
2024/04/17 10:48:47;;;;;;;2.10;0.83;;;12.60;55.90;;;;;;5492194;26;20817;-71
2024/04/17 10:51:14;;;;;;;3.00;1.60;;;12.50;55.40;;;;;;5492175;26;20503;-71
2024/04/17 10:53:45;;;;;;;4.97;2.33;;;12.40;55.90;;;;;;5492067;26;20447;-71
2024/04/17 10:56:12;;;;;;;2.20;1.00;;;12.30;55.00;;;;;;5458287;26;20461;-71
2024/04/17 10:58:42;;;;;;;2.30;1.00;;;12.30;55.20;;;;;;5456029;26;20452;-71
2024/04/17 11:01:12;;;;;;;1.90;0.90;;;12.20;54.50;;;;;;5455171;26;20556;-71
2024/04/17 11:03:41;;;;;;;2.00;0.90;;;12.10;55.10;;;;;;5455025;26;20448;-71
2024/04/17 11:06:09;;;;;;;2.10;0.90;;;12.00;56.10;;;;;;5484655;26;20340;-71
2024/04/17 11:08:42;;;;;;;2.28;1.00;;;12.00;54.70;;;;;;5492312;26;20451;-71
2024/04/17 11:11:10;;;;;;;2.20;1.00;;;11.80;55.10;;;;;;5492108;26;20230;-71
2024/04/17 11:13:44;;;;;;;2.60;1.33;;;11.70;55.90;;;;;;5486886;26;20230;-71
2024/04/17 11:16:13;;;;;;;2.10;1.02;;;11.60;55.70;;;;;;5490843;26;20249;-71
2024/04/17 11:18:42;;;;;;;2.42;1.40;;;11.50;56.60;;;;;;5491121;26;20710;-71
2024/04/17 11:21:10;;;;;;;2.50;1.15;;;11.20;56.60;;;;;;5491527;26;20261;-71
2024/04/17 11:23:42;;;;;;;3.00;1.40;;;11.00;57.20;;;;;;5490098;26;20226;-71
2024/04/17 11:26:08;;;;;;;5.28;1.27;;;10.90;57.70;;;;;;5460358;26;20223;-71
2024/04/17 11:28:37;;;;;;;2.60;1.10;;;10.80;57.70;;;;;;5466385;26;20264;-71
2024/04/17 11:31:07;;;;;;;2.55;1.20;;;10.70;57.40;;;;;;5491130;26;20341;-71
2024/04/17 11:33:35;;;;;;;2.60;1.20;;;10.60;58.40;;;;;;5489674;26;20343;-71
2024/04/17 11:36:11;;;;;;;2.10;1.00;;;10.50;58.80;;;;;;5490557;26;20226;-71
2024/04/17 11:38:37;;;;;;;2.60;1.35;;;10.40;57.10;;;;;;5490465;26;20562;-71
2024/04/17 11:41:06;;;;;;;3.42;2.42;;;10.20;57.00;;;;;;5485925;26;20338;-71
2024/04/17 11:43:32;;;;;;;3.13;1.80;;;10.20;58.50;;;;;;5490991;26;20277;-70
2024/04/17 11:46:01;;;;;;;4.60;2.00;;;10.10;57.90;;;;;;5489719;26;20303;-71
2024/04/17 11:48:27;;;;;;;4.07;1.88;;;10.00;59.00;;;;;;5491399;26;20210;-70
2024/04/17 11:50:58;;;;;;;2.70;1.40;;;9.90;59.20;;;;;;5490132;26;20748;-70
2024/04/17 11:53:24;;;;;;;2.90;1.65;;;9.70;59.20;;;;;;5491697;26;20249;-70
2024/04/17 11:55:53;;;;;;;2.15;0.93;;;9.30;60.20;;;;;;5491283;26;20218;-71
2024/04/17 11:58:20;;;;;;;2.42;1.00;;;9.30;61.70;;;;;;5491226;26;20354;-71
2024/04/17 12:00:49;;;;;;;3.13;1.50;;;9.30;61.30;;;;;;5491188;26;20250;-71
2024/04/17 12:03:15;;;;;;;2.38;1.23;;;9.20;62.60;;;;;;5491439;26;20214;-71
2024/04/17 12:05:43;;;;;;;2.30;1.27;;;9.30;61.60;;;;;;5491254;26;20230;-71
2024/04/17 12:08:12;;;;;;;2.72;1.35;;;9.40;62.10;;;;;;5491077;26;20721;-71
2024/04/17 12:10:41;;;;;;;2.30;1.20;;;9.50;62.20;;;;;;5491024;26;20731;-71
2024/04/17 12:13:07;;;;;;;2.65;1.17;;;9.70;61.80;;;;;;5491369;26;20219;-71
2024/04/17 12:15:36;;;;;;;2.47;1.23;;;9.80;62.50;;;;;;5491297;26;20248;-71
2024/04/17 12:18:02;;;;;;;2.25;1.10;;;10.10;63.40;;;;;;5490971;26;20358;-71
2024/04/17 12:20:30;;;;;;;2.95;1.33;;;10.40;62.90;;;;;;5490936;26;20270;-71
2024/04/17 12:22:56;;;;;;;2.10;0.90;;;10.80;61.20;;;;;;5488531;26;20222;-72
2024/04/17 12:28:11;;;;;;;2.95;1.35;;;11.50;60.70;;;;;;5493860;26;20529;-71
2024/04/17 12:30:40;;;;;;;2.30;0.98;;;11.80;57.10;;;;;;5490776;26;20253;-71
2024/04/17 12:33:09;;;;;;;2.10;0.93;;;11.90;55.50;;;;;;5489978;26;20265;-71
2024/04/17 12:35:40;;;;;;;2.35;1.05;;;11.70;53.40;;;;;;5489729;26;20265;-71
2024/04/17 12:38:09;;;;;;;2.80;1.40;;;11.60;54.90;;;;;;5491124;26;20269;-71
2024/04/17 12:40:40;;;;;;;2.10;1.05;;;11.60;55.90;;;;;;5489579;26;20257;-71
2024/04/17 12:43:09;;;;;;;2.25;1.02;;;11.70;55.10;;;;;;5489996;26;20297;-71
2024/04/17 12:45:38;;;;;;;4.55;0.95;;;11.80;54.30;;;;;;5489250;26;20218;-71
2024/04/17 12:48:04;;;;;;;2.60;1.30;;;11.90;54.40;;;;;;5488911;26;20234;-72
2024/04/17 12:50:33;;;;;;;5.50;2.28;;;11.90;54.00;;;;;;5490258;26;20230;-71
2024/04/17 12:53:02;;;;;;;2.45;1.40;;;11.90;54.00;;;;;;5490276;26;20494;-71
2024/04/17 12:55:31;;;;;;;2.60;1.20;;;11.90;53.50;;;;;;5490458;26;20211;-71
2024/04/17 12:58:02;;;;;;;1.90;0.73;;;11.90;53.30;;;;;;5490517;26;20721;-71
2024/04/17 13:00:28;;;;;;;2.15;1.00;;;12.00;52.90;;;;;;5490693;26;20261;-71
2024/04/17 13:02:56;;;;;;;3.30;1.67;;;12.00;52.30;;;;;;5490710;26;20676;-71